Airfield :
LOGIN :

Register | Disclaimer

   EN    FR    IT 

 










Legend :    VFR   Marginal VFR   IFR   Intensive IFR   Very Intensive IFR
Visi :
Ceiling :
>= 8 km
>= 3000ft
5 to 8 km
1000 to 3000 ft
1500m to 5 km
500 to 1000 ft
800 to 1500m
200 to 500 ft
< 800m
< 200 ft
Symbols :   Thunderstorms  Fog  Heavy snow  Heavy precipitations  Wind > 20 kt
SIGMETs :     Misc.  Thunderstorms  Icing  Turbulence  Mountain Waves  Volcanic Ashes






- Airport Elevation : 1682 ft
- IATA code : VIT


LEVT - Vitoria Gasteiz

CURRENT METAR :
  • 240600Z VRB02KT 8000 FEW020 01/01 Q1020

EXPIRED METARs :
  • 240530Z VRB02KT 8000 FEW020 01/01 Q1020
  • 240500Z 00000KT 9000 FEW020 01/01 Q1020
  • 240430Z VRB02KT 9000 FEW017 03/02 Q1020
  • 240400Z 04002KT 9000 FEW017 01/01 Q1020
  • 240330Z 03002KT 9999 FEW017 01/01 Q1020
  • 240300Z VRB01KT 9999 SCT019 03/02 Q1020

TAF TAF LEVT
Valid from the 24 at 06:00 until the 25 at 06:00 UTC


240500Z 2406/2506 18005KT 9999 SCT020 TX09/2415Z TNM00/2503Z
PROB40
TEMPO 2406/2410 3000 BR BKN005
PROB40
TEMPO 2406/2410 0350 FG VV001
PROB40
TEMPO 2500/2506 3000 BR
PROB40
TEMPO 2500/2506 0350 FG FZFG VV001



MET'MAP, your aeronautical weather chart ! - Copyright ORBIFLY December 2007 - Disclaimer

ORBIFLY MET'MAP TEAM :

Programming & Development : Alexandra Zaïnal
Concept & original design : Baudouin d'Aumeries
Assistance for programming : Marc-Olivier Méhu
Technical & hardware support : Manuel Goepfert

Contact : metmap@orbifly.com




SOURCES & CREDITS :

   NOAA